Time;durP1;ratioP1;P1;durP2;ratioP2;P2;SDS_P1;SDS_P2;PMS_P1;PMS_P2;Temp;Humidity;BMP_temperature;BMP_pressure;BME280_temperature;BME280_humidity;BME280_pressure;Samples;Min_cycle;Max_cycle;Signal;HPM_P1;HPM_P2
2022/07/12 00:00:34;;;;;;;3.85;3.42;;;;;;;9.74;89.29;94631.35;1707053;83;21018;-54
2022/07/12 00:03:02;;;;;;;5.80;3.55;;;;;;;9.73;89.48;94635.31;1695815;83;21077;-54
2022/07/12 00:05:30;;;;;;;3.72;3.42;;;;;;;9.75;89.26;94638.38;1693257;83;20952;-55
2022/07/12 00:07:58;;;;;;;3.25;3.05;;;;;;;9.71;89.38;94633.62;1696545;83;21247;-54
2022/07/12 00:10:27;;;;;;;4.10;3.80;;;;;;;9.68;89.62;94635.30;1701277;83;21014;-54
2022/07/12 00:12:56;;;;;;;3.55;3.27;;;;;;;9.65;89.59;94642.27;1691087;83;20999;-54
2022/07/12 00:15:25;;;;;;;4.28;3.50;;;;;;;9.58;89.66;94642.52;1706036;83;21038;-54
2022/07/12 00:17:53;;;;;;;8.73;4.33;;;;;;;9.49;89.79;94645.94;1715230;83;21070;-54
2022/07/12 00:20:21;;;;;;;4.12;3.75;;;;;;;9.37;89.51;94645.94;1712447;83;21743;-53
2022/07/12 00:22:49;;;;;;;3.60;3.30;;;;;;;9.28;89.83;94643.86;1690695;83;20953;-53
2022/07/12 00:25:18;;;;;;;5.42;3.70;;;;;;;9.23;89.89;94645.04;1691949;83;21007;-53
2022/07/12 00:27:46;;;;;;;11.25;3.90;;;;;;;9.15;89.67;94640.38;1715195;83;21007;-53
2022/07/12 00:30:14;;;;;;;13.25;4.12;;;;;;;9.11;89.94;94648.55;1695244;83;21067;-53
2022/07/12 00:32:43;;;;;;;4.70;3.55;;;;;;;9.07;90.06;94655.52;1699719;83;21877;-53
2022/07/12 00:35:13;;;;;;;3.55;3.35;;;;;;;9.06;89.91;94649.86;1695355;83;21057;-53
2022/07/12 00:37:41;;;;;;;3.85;3.55;;;;;;;9.05;89.76;94652.44;1677068;83;21442;-54
2022/07/12 00:40:09;;;;;;;4.53;4.10;;;;;;;9.05;89.85;94655.80;1672886;83;21554;-54
2022/07/12 00:42:41;;;;;;;4.20;3.90;;;;;;;9.06;90.15;94658.71;1700927;83;21506;-54
2022/07/12 00:45:10;;;;;;;4.07;3.67;;;;;;;9.13;90.18;94662.59;1699126;83;21083;-53
2022/07/12 00:47:42;;;;;;;3.92;3.62;;;;;;;9.11;89.72;94667.76;1691476;83;21495;-53
2022/07/12 00:50:18;;;;;;;4.00;3.60;;;;;;;9.09;89.52;94665.44;1705088;83;21026;-54
2022/07/12 00:52:48;;;;;;;4.03;3.40;;;;;;;9.12;89.61;94672.03;1689478;84;21471;-55
2022/07/12 00:55:16;;;;;;;3.62;3.33;;;;;;;9.17;89.85;94671.48;1710504;83;21014;-54
2022/07/12 00:57:44;;;;;;;4.00;3.70;;;;;;;9.24;89.68;94665.17;1701296;83;21969;-54
2022/07/12 01:00:15;;;;;;;4.50;3.30;;;;;;;9.26;89.22;94665.49;1694192;83;21738;-54
2022/07/12 01:02:44;;;;;;;3.60;3.30;;;;;;;9.30;89.11;94668.91;1691161;83;21094;-54
2022/07/12 01:05:12;;;;;;;3.40;3.20;;;;;;;9.37;88.87;94673.39;1710176;83;20967;-54
2022/07/12 01:07:40;;;;;;;4.10;3.50;;;;;;;9.42;88.46;94668.73;1701392;83;21006;-54
2022/07/12 01:10:09;;;;;;;4.17;3.40;;;;;;;9.47;88.48;94670.92;1697731;83;21242;-54
2022/07/12 01:12:37;;;;;;;3.85;3.55;;;;;;;9.48;87.85;94658.72;1715190;83;21517;-53
2022/07/12 01:15:06;;;;;;;4.17;3.55;;;;;;;9.47;88.29;94666.80;1692078;83;21055;-53
2022/07/12 01:17:35;;;;;;;6.05;3.67;;;;;;;9.52;88.04;94660.74;1706795;83;21061;-52
2022/07/12 01:20:06;;;;;;;4.45;3.95;;;;;;;9.57;87.98;94661.55;1699102;83;21530;-52
2022/07/12 01:22:36;;;;;;;3.83;3.58;;;;;;;9.60;88.07;94653.83;1705648;83;21199;-53
2022/07/12 01:25:06;;;;;;;3.65;3.35;;;;;;;9.61;88.21;94652.61;1697119;83;21385;-54
2022/07/12 01:27:34;;;;;;;3.83;3.52;;;;;;;9.65;88.05;94655.38;1687562;83;21040;-53
2022/07/12 01:30:07;;;;;;;4.80;3.25;;;;;;;9.67;87.94;94650.83;1684688;83;20974;-54
2022/07/12 01:32:36;;;;;;;3.58;3.27;;;;;;;9.65;87.67;94649.14;1704733;83;21438;-53
2022/07/12 01:35:06;;;;;;;6.90;3.30;;;;;;;9.60;87.75;94646.96;1705997;83;21223;-54
2022/07/12 01:37:37;;;;;;;3.50;3.20;;;;;;;9.60;88.05;94653.83;1687574;84;21530;-57
2022/07/12 01:40:06;;;;;;;3.30;3.10;;;;;;;9.59;87.91;94653.05;1690720;83;21515;-54
2022/07/12 01:42:35;;;;;;;4.33;3.92;;;;;;;9.52;87.78;94648.39;1694999;83;21015;-55
2022/07/12 01:45:03;;;;;;;3.95;3.55;;;;;;;9.45;88.07;94653.50;1689523;83;20955;-55
2022/07/12 01:47:32;;;;;;;3.65;3.35;;;;;;;9.45;88.28;94643.89;1691088;83;21776;-55
2022/07/12 01:50:00;;;;;;;4.80;3.95;;;;;;;9.43;88.37;94646.31;1706955;83;21459;-55
2022/07/12 01:52:28;;;;;;;4.20;3.42;;;;;;;9.40;88.49;94648.58;1700801;83;21514;-54
2022/07/12 01:54:56;;;;;;;4.97;3.55;;;;;;;9.37;88.82;94656.33;1699021;83;21003;-54
2022/07/12 01:57:24;;;;;;;4.42;4.03;;;;;;;9.36;89.10;94648.52;1709048;83;21069;-54
2022/07/12 01:59:53;;;;;;;3.58;3.33;;;;;;;9.35;88.94;94643.65;1700027;83;21857;-55
2022/07/12 02:02:22;;;;;;;3.72;3.40;;;;;;;9.33;89.02;94639.80;1697869;83;21042;-54
2022/07/12 02:04:50;;;;;;;4.85;3.62;;;;;;;9.31;88.88;94635.36;1713957;83;20962;-55
2022/07/12 02:07:17;;;;;;;4.58;3.70;;;;;;;9.31;89.46;94628.49;1692362;83;21103;-54
2022/07/12 02:09:45;;;;;;;4.28;3.58;;;;;;;9.35;89.45;94629.14;1696216;83;21503;-54
2022/07/12 02:12:13;;;;;;;6.00;3.50;;;;;;;9.39;89.51;94632.53;1688924;83;21847;-54
2022/07/12 02:14:41;;;;;;;6.25;4.00;;;;;;;9.45;89.51;94628.79;1686147;83;21496;-55
2022/07/12 02:17:10;;;;;;;4.08;3.55;;;;;;;9.52;89.31;94625.05;1684403;83;21096;-54
2022/07/12 02:19:39;;;;;;;3.95;3.22;;;;;;;9.57;88.99;94627.22;1701254;83;20959;-54
2022/07/12 02:22:06;;;;;;;5.05;3.77;;;;;;;9.60;88.86;94634.60;1693835;83;21031;-54
2022/07/12 02:24:34;;;;;;;5.62;3.50;;;;;;;9.59;88.49;94635.81;1709913;83;21838;-54
2022/07/12 02:27:04;;;;;;;4.65;3.83;;;;;;;9.56;88.21;94635.30;1696874;83;20970;-54
2022/07/12 02:29:33;;;;;;;8.15;3.65;;;;;;;9.52;88.25;94635.44;1689781;84;21027;-54
2022/07/12 02:32:02;;;;;;;3.42;3.22;;;;;;;9.52;88.20;94636.03;1697194;83;21058;-53
2022/07/12 02:34:30;;;;;;;3.80;3.42;;;;;;;9.49;87.95;94628.68;1715172;83;20967;-54
2022/07/12 02:36:59;;;;;;;7.50;3.55;;;;;;;9.49;88.03;94627.31;1696430;83;21204;-54
2022/07/12 02:39:27;;;;;;;3.80;3.50;;;;;;;9.52;88.18;94630.54;1690274;84;20992;-55
2022/07/12 02:41:56;;;;;;;3.98;3.67;;;;;;;9.57;88.32;94632.12;1694745;83;21062;-56
2022/07/12 02:44:24;;;;;;;3.67;3.42;;;;;;;9.61;88.05;94630.64;1702384;83;21040;-54
2022/07/12 02:46:53;;;;;;;3.60;3.30;;;;;;;9.64;87.94;94639.36;1692540;83;20995;-54
2022/07/12 02:49:21;;;;;;;5.08;3.27;;;;;;;9.69;87.43;94634.67;1707572;83;21211;-54
2022/07/12 02:51:49;;;;;;;3.83;3.50;;;;;;;9.66;87.69;94633.57;1659893;83;20963;-54
2022/07/12 02:54:17;;;;;;;3.87;3.40;;;;;;;9.69;87.85;94636.05;1707037;83;21011;-54
2022/07/12 02:56:45;;;;;;;6.95;3.55;;;;;;;9.76;87.93;94638.58;1684373;83;21022;-54
2022/07/12 02:59:14;;;;;;;5.42;3.75;;;;;;;9.76;87.74;94649.56;1684331;83;20962;-54
2022/07/12 03:01:42;;;;;;;7.62;3.30;;;;;;;9.77;87.96;94645.60;1703174;83;21211;-54
2022/07/12 03:04:12;;;;;;;3.72;3.42;;;;;;;9.84;88.13;94636.48;1693050;83;21070;-54
2022/07/12 03:06:40;;;;;;;6.08;3.90;;;;;;;9.88;87.78;94635.78;1702141;83;20963;-54
2022/07/12 03:09:08;;;;;;;6.70;3.62;;;;;;;9.86;87.75;94628.59;1690867;83;21489;-53
2022/07/12 03:11:36;;;;;;;3.52;3.22;;;;;;;9.85;87.75;94634.52;1686579;83;21074;-54
2022/07/12 03:14:05;;;;;;;4.70;4.10;;;;;;;9.80;87.40;94629.59;1702588;83;21920;-53
2022/07/12 03:16:33;;;;;;;5.17;3.42;;;;;;;9.71;87.54;94633.03;1687762;83;21573;-54
2022/07/12 03:19:01;;;;;;;3.85;3.42;;;;;;;9.72;88.07;94631.03;1688868;83;21179;-54
2022/07/12 03:21:30;;;;;;;3.37;3.00;;;;;;;9.78;88.39;94637.52;1675423;83;21044;-54
2022/07/12 03:23:58;;;;;;;5.55;3.52;;;;;;;9.82;88.40;94634.79;1685995;83;21066;-54
2022/07/12 03:26:26;;;;;;;4.53;3.33;;;;;;;9.84;88.34;94629.61;1691703;83;21769;-54
2022/07/12 03:28:55;;;;;;;4.53;3.30;;;;;;;9.88;88.39;94623.41;1688294;83;20955;-54
2022/07/12 03:31:24;;;;;;;3.55;3.25;;;;;;;9.93;88.29;94627.55;1689660;83;21079;-54
2022/07/12 03:33:51;;;;;;;3.42;3.12;;;;;;;10.01;88.19;94623.36;1697311;83;21018;-53
2022/07/12 03:36:20;;;;;;;3.80;3.50;;;;;;;10.03;88.08;94619.59;1705857;83;21042;-53
2022/07/12 03:38:48;;;;;;;3.47;3.17;;;;;;;10.08;88.21;94623.12;1697453;83;21121;-53
2022/07/12 03:41:16;;;;;;;3.58;3.37;;;;;;;10.13;88.01;94619.83;1715026;83;20993;-53
2022/07/12 03:43:44;;;;;;;3.55;3.25;;;;;;;10.15;88.13;94626.40;1705137;83;21042;-54
2022/07/12 03:46:12;;;;;;;3.52;3.20;;;;;;;10.14;87.69;94621.36;1682093;83;21184;-54
2022/07/12 03:48:41;;;;;;;3.45;3.15;;;;;;;10.14;87.63;94629.61;1702564;83;21013;-55
2022/07/12 03:51:09;;;;;;;4.40;3.27;;;;;;;10.15;87.73;94624.27;1709707;83;21168;-54
2022/07/12 03:53:37;;;;;;;3.65;3.35;;;;;;;10.16;87.60;94621.05;1715057;83;20994;-54
2022/07/12 03:56:07;;;;;;;4.33;3.42;;;;;;;10.16;87.73;94627.93;1703325;83;20968;-54
2022/07/12 03:58:37;;;;;;;3.60;3.40;;;;;;;10.16;87.86;94625.80;1707385;83;21031;-55
2022/07/12 04:01:05;;;;;;;4.00;3.17;;;;;;;10.20;87.98;94623.06;1653962;83;21098;-54
2022/07/12 04:03:33;;;;;;;7.55;3.55;;;;;;;10.21;87.90;94619.13;1700304;83;21332;-54
2022/07/12 04:06:02;;;;;;;6.20;3.55;;;;;;;10.24;88.22;94617.45;1694182;83;20955;-54
2022/07/12 04:08:30;;;;;;;6.03;3.55;;;;;;;10.30;88.50;94618.40;1699804;83;21026;-54
2022/07/12 04:11:00;;;;;;;3.77;3.45;;;;;;;10.41;88.63;94614.07;1715248;83;21439;-53
2022/07/12 04:13:29;;;;;;;5.67;3.30;;;;;;;10.54;88.46;94613.98;1694973;83;21006;-55
2022/07/12 04:15:58;;;;;;;3.52;3.00;;;;;;;10.65;87.82;94606.09;1695302;83;21180;-55
2022/07/12 04:18:27;;;;;;;6.83;3.40;;;;;;;10.73;87.36;94622.50;1706105;83;21038;-54
2022/07/12 04:20:55;;;;;;;3.30;3.00;;;;;;;10.79;86.87;94622.84;1690338;83;21128;-54
2022/07/12 04:23:24;;;;;;;5.37;3.27;;;;;;;10.80;86.71;94624.38;1703983;83;20983;-55
2022/07/12 04:25:52;;;;;;;6.62;3.70;;;;;;;10.84;86.69;94624.38;1695769;83;21117;-55
2022/07/12 04:28:21;;;;;;;3.37;3.08;;;;;;;10.86;86.52;94624.72;1693171;83;21231;-54
2022/07/12 04:30:50;;;;;;;3.80;2.98;;;;;;;10.95;86.22;94620.63;1707023;83;20999;-55
2022/07/12 04:33:18;;;;;;;3.87;3.45;;;;;;;11.01;85.82;94616.67;1694857;83;20973;-54
2022/07/12 04:35:46;;;;;;;3.98;3.22;;;;;;;11.02;85.66;94617.58;1697217;83;21062;-53
2022/07/12 04:38:15;;;;;;;3.62;3.33;;;;;;;11.06;85.86;94611.34;1701515;83;21491;-53
2022/07/12 04:40:44;;;;;;;6.20;3.55;;;;;;;11.13;85.62;94611.69;1692059;84;21272;-53
2022/07/12 04:43:12;;;;;;;3.50;3.20;;;;;;;11.13;85.35;94613.06;1700453;83;20999;-54
2022/07/12 04:45:43;;;;;;;3.58;3.33;;;;;;;11.11;85.45;94612.13;1689552;83;20973;-54
2022/07/12 04:48:10;;;;;;;4.95;3.05;;;;;;;11.17;85.25;94621.94;1695775;83;20992;-54
2022/07/12 04:50:39;;;;;;;3.10;2.90;;;;;;;11.16;85.08;94617.03;1708444;83;20986;-53
2022/07/12 04:53:07;;;;;;;3.10;2.90;;;;;;;11.20;85.23;94614.14;1710020;83;21123;-54
2022/07/12 04:55:36;;;;;;;3.30;3.10;;;;;;;11.20;85.09;94621.78;1697352;83;21005;-54
2022/07/12 04:58:04;;;;;;;3.90;3.00;;;;;;;11.22;85.22;94616.61;1685917;83;20970;-54
2022/07/12 05:00:34;;;;;;;4.85;2.90;;;;;;;11.25;85.15;94620.42;1657660;83;21038;-57
2022/07/12 05:03:02;;;;;;;3.45;3.10;;;;;;;11.33;85.10;94623.82;1699146;83;21451;-57
2022/07/12 05:05:30;;;;;;;7.22;2.92;;;;;;;11.43;84.79;94625.39;1697164;83;21747;-57
2022/07/12 05:07:58;;;;;;;9.23;2.83;;;;;;;11.50;84.19;94619.59;1698574;83;21565;-57
2022/07/12 05:10:27;;;;;;;9.23;4.78;;;;;;;11.54;83.51;94610.56;1698919;83;20999;-57
2022/07/12 05:12:55;;;;;;;8.73;3.52;;;;;;;11.54;83.08;94613.31;1697545;83;20983;-59
2022/07/12 05:15:23;;;;;;;2.75;2.55;;;;;;;11.54;82.93;94609.18;1697720;83;20958;-57
2022/07/12 05:17:52;;;;;;;3.50;3.08;;;;;;;11.64;82.73;94612.75;1688818;83;22603;-58
2022/07/12 05:20:20;;;;;;;6.35;2.90;;;;;;;11.78;82.44;94619.84;1684645;84;21506;-57
2022/07/12 05:22:48;;;;;;;4.15;3.10;;;;;;;11.88;82.28;94618.60;1699200;83;21076;-57
2022/07/12 05:25:17;;;;;;;3.20;2.90;;;;;;;11.96;82.43;94621.23;1690958;83;20997;-57
2022/07/12 05:27:45;;;;;;;4.17;2.90;;;;;;;12.06;82.51;94615.86;1692245;83;21167;-58
2022/07/12 05:30:14;;;;;;;3.12;2.72;;;;;;;12.13;82.51;94614.19;1701542;83;21498;-59
2022/07/12 05:32:44;;;;;;;9.43;3.05;;;;;;;12.19;82.45;94617.86;1656250;83;21161;-57
2022/07/12 05:35:11;;;;;;;4.75;3.02;;;;;;;12.24;82.45;94619.24;1656399;85;21227;-58
2022/07/12 05:37:40;;;;;;;7.70;2.90;;;;;;;12.31;82.38;94614.78;1660236;85;21461;-57
2022/07/12 05:40:09;;;;;;;2.92;2.72;;;;;;;12.36;82.25;94608.64;1680877;83;21021;-57
2022/07/12 05:42:38;;;;;;;4.08;2.98;;;;;;;12.38;81.95;94609.72;1657712;83;21232;-57
2022/07/12 05:45:08;;;;;;;2.85;2.42;;;;;;;12.45;81.36;94605.25;1641637;85;21068;-61
2022/07/12 05:47:35;;;;;;;4.47;2.67;;;;;;;12.57;80.94;94607.08;1609673;85;21458;-58
2022/07/12 05:50:05;;;;;;;4.33;2.80;;;;;;;12.72;80.65;94600.45;1646444;85;21098;-57
2022/07/12 05:55:20;;;;;;;3.17;2.65;;;;;;;13.15;79.80;94597.28;1661297;85;21104;-60
2022/07/12 05:57:48;;;;;;;8.38;2.77;;;;;;;13.30;78.68;94605.02;1665051;85;21082;-59
2022/07/12 06:00:16;;;;;;;2.77;2.50;;;;;;;13.38;77.96;94598.53;1651792;85;21128;-58
2022/07/12 06:02:43;;;;;;;2.80;2.60;;;;;;;13.50;77.59;94603.09;1646154;86;21112;-57
2022/07/12 06:05:12;;;;;;;2.70;2.50;;;;;;;13.62;76.97;94600.72;1639456;86;21458;-57
2022/07/12 06:07:39;;;;;;;2.60;2.40;;;;;;;13.72;76.49;94598.03;1642307;85;21234;-58
2022/07/12 06:10:08;;;;;;;7.42;4.17;;;;;;;13.81;76.38;94596.61;1673164;84;21057;-57
2022/07/12 06:12:37;;;;;;;6.40;2.90;;;;;;;13.82;75.72;94591.23;1665763;83;21018;-57
2022/07/12 06:15:06;;;;;;;5.65;3.30;;;;;;;13.83;76.22;94595.52;1658890;84;21571;-57
2022/07/12 06:17:34;;;;;;;5.55;3.25;;;;;;;13.88;76.74;94596.24;1623519;86;21077;-57
2022/07/12 06:20:04;;;;;;;3.12;2.75;;;;;;;13.96;76.18;94604.34;1661180;83;21549;-54
2022/07/12 06:22:32;;;;;;;6.10;2.72;;;;;;;13.99;75.49;94604.78;1632612;85;21115;-59
2022/07/12 06:25:00;;;;;;;2.90;2.70;;;;;;;13.97;74.87;94600.34;1629950;85;21050;-57
2022/07/12 06:27:31;;;;;;;9.65;3.47;;;;;;;13.98;74.59;94601.88;1642471;84;21201;-59
2022/07/12 06:30:00;;;;;;;5.87;3.87;;;;;;;13.96;74.30;94611.27;1661365;85;21601;-60
2022/07/12 06:32:28;;;;;;;3.98;3.60;;;;;;;13.91;74.39;94611.28;1632804;83;22180;-57
2022/07/12 06:34:56;;;;;;;4.25;3.30;;;;;;;13.89;74.52;94604.08;1656693;84;21222;-59
2022/07/12 06:37:25;;;;;;;6.40;3.05;;;;;;;13.90;75.18;94604.23;1634935;85;21199;-57
2022/07/12 06:39:53;;;;;;;5.65;3.83;;;;;;;13.96;75.24;94604.34;1662665;83;20990;-56
2022/07/12 06:42:21;;;;;;;8.18;3.70;;;;;;;14.00;75.24;94608.44;1659637;84;21016;-64
2022/07/12 06:44:50;;;;;;;4.78;3.72;;;;;;;14.08;75.33;94612.39;1654262;84;21132;-58
2022/07/12 06:47:19;;;;;;;4.30;3.40;;;;;;;14.15;74.81;94609.25;1617186;86;21057;-59
2022/07/12 06:49:47;;;;;;;7.60;4.50;;;;;;;14.19;74.51;94605.71;1640172;84;21096;-56
2022/07/12 06:52:16;;;;;;;6.05;3.90;;;;;;;14.27;74.89;94611.05;1635883;85;21578;-56
2022/07/12 06:54:44;;;;;;;6.90;4.00;;;;;;;14.49;75.16;94616.36;1608308;87;21090;-58
2022/07/12 06:57:13;;;;;;;6.35;3.75;;;;;;;14.73;75.13;94612.92;1615676;86;21206;-58
2022/07/12 06:59:41;;;;;;;3.62;3.15;;;;;;;14.95;75.04;94605.59;1613996;85;21534;-56
2022/07/12 07:02:18;;;;;;;3.92;3.35;;;;;;;15.10;72.53;94600.81;1606517;88;21565;-61
2022/07/12 07:04:50;;;;;;;5.90;3.35;;;;;;;15.21;71.46;94598.98;1630144;85;21032;-57
2022/07/12 07:07:18;;;;;;;2.87;2.67;;;;;;;15.36;69.64;94603.91;1617495;86;21053;-61
2022/07/12 07:09:47;;;;;;;4.67;2.80;;;;;;;15.46;67.70;94603.17;1609861;85;21948;-58
2022/07/12 07:12:16;;;;;;;2.40;2.20;;;;;;;15.59;67.39;94601.63;1642690;86;21092;-57
2022/07/12 07:14:48;;;;;;;2.62;2.30;;;;;;;15.81;66.23;94600.55;1610313;86;21151;-61
2022/07/12 07:17:21;;;;;;;2.80;1.90;;;;;;;16.00;65.05;94598.26;1607144;88;21085;-58
2022/07/12 07:19:50;;;;;;;3.12;1.85;;;;;;;16.12;62.75;94603.45;1593815;88;21023;-60
2022/07/12 07:22:19;;;;;;;3.70;2.60;;;;;;;16.20;62.38;94608.75;1619560;87;23194;-59
2022/07/12 07:24:46;;;;;;;1.60;1.50;;;;;;;16.28;61.59;94602.90;1630188;85;21072;-58
2022/07/12 07:27:15;;;;;;;3.75;1.67;;;;;;;16.31;60.40;94613.02;1665898;83;21157;-57
2022/07/12 07:32:31;;;;;;;1.50;1.40;;;;;;;16.37;59.67;94605.58;1652045;84;21074;-61
2022/07/12 07:35:00;;;;;;;1.50;1.40;;;;;;;16.48;59.03;94604.30;1653730;83;21117;-59
2022/07/12 07:37:27;;;;;;;2.33;1.30;;;;;;;16.51;58.38;94609.64;1649683;85;21072;-59
2022/07/12 07:39:58;;;;;;;2.92;1.50;;;;;;;16.53;58.01;94615.47;1657830;83;21308;-57
2022/07/12 07:42:27;;;;;;;3.22;1.30;;;;;;;16.54;58.59;94620.41;1636577;84;20994;-58
2022/07/12 07:44:55;;;;;;;2.33;1.55;;;;;;;16.54;57.43;94612.08;1647687;84;21118;-55
2022/07/12 07:47:23;;;;;;;5.05;1.67;;;;;;;16.51;57.28;94614.45;1642057;84;21228;-56
2022/07/12 07:49:56;;;;;;;1.75;1.50;;;;;;;16.48;57.81;94620.95;1665383;83;21023;-57
2022/07/12 07:52:24;;;;;;;4.40;2.52;;;;;;;16.49;57.38;94618.31;1679831;83;21569;-59
2022/07/12 07:54:52;;;;;;;6.17;2.60;;;;;;;16.54;56.93;94616.25;1658776;83;21031;-59
2022/07/12 07:57:21;;;;;;;10.05;7.95;;;;;;;16.60;56.75;94607.34;1640313;85;38326;-57
2022/07/12 07:59:50;;;;;;;3.17;2.90;;;;;;;16.71;55.28;94609.60;1657738;83;21574;-56
2022/07/12 08:02:18;;;;;;;7.45;5.67;;;;;;;16.76;54.08;94613.70;1668883;83;21216;-58
2022/07/12 08:04:45;;;;;;;2.62;2.42;;;;;;;16.74;53.37;94618.98;1654912;83;21169;-59
2022/07/12 08:07:14;;;;;;;4.05;3.65;;;;;;;16.72;54.55;94615.94;1651188;84;21043;-67
2022/07/12 08:09:42;;;;;;;2.20;2.08;;;;;;;16.81;55.12;94614.38;1651645;83;21043;-58
2022/07/12 08:12:11;;;;;;;2.58;2.37;;;;;;;16.87;54.54;94615.95;1659671;84;21222;-59
2022/07/12 08:14:40;;;;;;;13.13;4.83;;;;;;;16.94;54.04;94613.37;1644305;83;21050;-59
2022/07/12 08:17:09;;;;;;;2.20;2.00;;;;;;;16.98;53.73;94613.91;1654789;85;21150;-60
2022/07/12 08:19:37;;;;;;;2.35;1.52;;;;;;;16.97;54.10;94620.72;1647533;85;21124;-60
2022/07/12 08:22:05;;;;;;;1.75;1.65;;;;;;;16.97;53.67;94606.83;1656360;85;20969;-58
2022/07/12 08:24:41;;;;;;;1.80;1.70;;;;;;;17.02;53.53;94613.05;1673926;84;21562;-61
2022/07/12 08:27:29;;;;;;;2.10;1.50;;;;;;;17.10;53.77;94609.98;1651945;84;21030;-65
2022/07/12 08:29:59;;;;;;;1.75;1.50;;;;;;;17.21;54.22;94610.06;1664050;85;21003;-62
2022/07/12 08:32:27;;;;;;;1.60;1.50;;;;;;;17.33;54.59;94604.73;1658381;85;21195;-58
2022/07/12 08:34:55;;;;;;;5.42;1.72;;;;;;;17.47;54.55;94612.96;1627252;84;21578;-57
2022/07/12 08:37:23;;;;;;;1.40;1.30;;;;;;;17.61;51.81;94616.88;1638987;85;21637;-58
2022/07/12 08:39:50;;;;;;;3.47;1.40;;;;;;;17.71;51.38;94612.63;1639403;85;21094;-60
2022/07/12 08:42:20;;;;;;;3.52;1.47;;;;;;;17.79;50.92;94605.36;1638105;85;21511;-60
2022/07/12 08:44:57;;;;;;;1.65;1.30;;;;;;;17.86;50.05;94608.41;1633940;84;21078;-61
2022/07/12 08:47:25;;;;;;;2.90;2.60;;;;;;;17.90;49.59;94600.62;1667044;84;21182;-61
2022/07/12 08:50:16;;;;;;;2.30;1.42;;;;;;;18.03;49.87;94597.39;1643564;85;21208;-62
2022/07/12 08:52:47;;;;;;;3.87;1.40;;;;;;;18.13;48.90;94602.99;1648855;84;21108;-59
2022/07/12 08:55:33;;;;;;;1.52;1.42;;;;;;;18.13;48.78;94602.25;1660783;85;21097;-57
2022/07/12 08:58:07;;;;;;;1.80;1.50;;;;;;;18.13;49.89;94608.56;1652912;85;20914;-58
2022/07/12 09:00:35;;;;;;;4.72;1.50;;;;;;;18.18;49.85;94615.42;1646279;84;20982;-58
2022/07/12 09:03:06;;;;;;;1.45;1.35;;;;;;;18.31;48.72;94605.39;1659240;85;21211;-58
2022/07/12 09:05:36;;;;;;;4.20;1.42;;;;;;;18.52;48.99;94603.97;1632690;85;20977;-58
2022/07/12 09:08:08;;;;;;;5.55;2.35;;;;;;;18.74;48.92;94604.03;1645507;85;20997;-57
2022/07/12 09:10:52;;;;;;;2.83;1.37;;;;;;;18.85;48.69;94595.67;1649707;85;21052;-57
2022/07/12 09:13:19;;;;;;;4.97;1.27;;;;;;;18.91;48.51;94600.65;1655398;84;21089;-57
2022/07/12 09:15:47;;;;;;;1.92;1.05;;;;;;;19.12;48.14;94599.16;1657464;84;21248;-57
2022/07/12 09:18:25;;;;;;;13.18;2.62;;;;;;;19.32;47.05;94592.58;1651706;85;21094;-56
2022/07/12 09:20:53;;;;;;;1.55;1.30;;;;;;;19.36;46.13;94611.99;1625193;85;21201;-55
2022/07/12 09:23:20;;;;;;;0.85;0.85;;;;;;;19.10;46.47;94605.09;1645978;85;21553;-57
2022/07/12 09:25:48;;;;;;;2.40;1.00;;;;;;;18.72;46.58;94600.98;1646288;85;21063;-59
2022/07/12 09:28:16;;;;;;;4.17;1.27;;;;;;;18.48;47.23;94600.64;1644766;83;21878;-59
2022/07/12 09:30:55;;;;;;;1.12;1.02;;;;;;;18.31;47.36;94601.85;1643441;83;21137;-57
2022/07/12 09:36:10;;;;;;;10.30;3.52;;;;;;;18.03;48.10;94605.09;1661385;84;21061;-59
2022/07/12 09:39:00;;;;;;;7.08;4.90;;;;;;;17.94;48.79;94601.14;1642015;85;21029;-59
2022/07/12 09:41:22;;;;;;;3.77;2.50;;;;;;;17.83;48.86;94600.31;1654713;84;26523;-57
2022/07/12 09:43:52;;;;;;;5.42;3.02;;;;;;;17.73;49.44;94597.59;1643948;85;21057;-57
2022/07/12 09:46:20;;;;;;;8.30;6.03;;;;;;;17.69;48.69;94606.80;1660322;83;21707;-57
2022/07/12 09:48:48;;;;;;;2.40;1.37;;;;;;;17.69;49.83;94606.80;1652968;85;21022;-55
2022/07/12 09:51:17;;;;;;;8.30;6.55;;;;;;;17.75;49.34;94603.41;1638150;85;21029;-57
2022/07/12 09:54:02;;;;;;;;;;;;;;;;;;;;;
2022/07/12 09:56:23;;;;;;;4.95;3.83;;;;;;;17.80;49.88;94604.84;1621201;84;21495;-56
2022/07/12 09:58:57;;;;;;;9.10;4.92;;;;;;;17.82;49.78;94614.10;1638377;84;21509;-56
2022/07/12 10:01:27;;;;;;;2.15;1.70;;;;;;;17.81;49.31;94616.75;1644331;84;21026;-59
2022/07/12 10:03:55;;;;;;;3.92;2.10;;;;;;;17.80;48.43;94614.59;1631290;85;21182;-56
2022/07/12 10:06:30;;;;;;;2.62;1.92;;;;;;;17.78;47.82;94610.15;1655151;85;21761;-58
2022/07/12 10:08:57;;;;;;;1.80;1.70;;;;;;;17.75;48.33;94604.80;1657805;84;21043;-56
2022/07/12 10:11:25;;;;;;;4.00;1.87;;;;;;;17.85;48.29;94606.89;1654051;85;21025;-61
2022/07/12 10:13:54;;;;;;;3.70;2.10;;;;;;;17.99;47.44;94614.97;1635624;85;21034;-57
2022/07/12 10:16:27;;;;;;;5.58;2.15;;;;;;;18.18;48.24;94614.03;1662913;85;21919;-56
2022/07/12 10:19:23;;;;;;;2.85;1.60;;;;;;;18.39;47.02;94607.84;1654232;85;21132;-55
2022/07/12 10:21:57;;;;;;;7.30;1.60;;;;;;;18.48;45.95;94607.61;1652535;84;21054;-56
2022/07/12 10:24:46;;;;;;;3.65;1.45;;;;;;;18.40;46.49;94611.38;1664501;84;21060;-58
2022/07/12 10:27:23;;;;;;;2.75;1.30;;;;;;;18.24;47.29;94612.81;1662762;85;21009;-57
2022/07/12 10:29:52;;;;;;;2.00;1.10;;;;;;;18.13;47.89;94615.52;1649296;85;21072;-59
2022/07/12 10:32:27;;;;;;;1.52;1.10;;;;;;;18.15;48.19;94603.91;1656180;85;21807;-56
2022/07/12 10:35:13;;;;;;;1.50;0.93;;;;;;;18.31;48.34;94613.00;1660083;84;21484;-58
2022/07/12 10:37:42;;;;;;;11.97;1.40;;;;;;;18.38;47.89;94624.42;1676907;84;21182;-58
2022/07/12 10:40:16;;;;;;;1.72;0.90;;;;;;;18.39;47.96;94614.80;1657909;85;21141;-58
2022/07/12 10:43:09;;;;;;;3.85;1.65;;;;;;;18.63;47.71;94595.63;1641520;85;21094;-56
2022/07/12 10:45:39;;;;;;;2.77;1.10;;;;;;;19.00;46.23;94610.16;1651877;85;21391;-58
2022/07/12 10:48:14;;;;;;;0.90;0.90;;;;;;;19.36;46.05;94602.88;1661316;84;21096;-57
2022/07/12 10:53:23;;;;;;;1.92;0.90;;;;;;;19.92;43.52;94609.28;1668758;84;21038;-58
2022/07/12 10:56:27;;;;;;;2.72;0.90;;;;;;;19.81;43.87;94605.13;1657312;85;21039;-57
2022/07/12 10:58:58;;;;;;;1.70;0.90;;;;;;;20.11;43.33;94614.47;1647684;84;21085;-52
2022/07/12 11:01:30;;;;;;;2.92;1.25;;;;;;;20.38;43.35;94608.80;1630175;86;21506;-50
2022/07/12 11:04:09;;;;;;;2.05;1.10;;;;;;;20.67;43.69;94606.78;1648714;85;21164;-51
2022/07/12 11:06:38;;;;;;;2.72;1.30;;;;;;;20.90;42.72;94601.22;1652867;85;21100;-54
2022/07/12 11:09:10;;;;;;;1.05;0.85;;;;;;;21.12;42.62;94606.67;1615175;85;21025;-52
2022/07/12 11:11:48;;;;;;;1.25;0.90;;;;;;;21.39;41.65;94595.16;1663365;84;21610;-51
2022/07/12 11:14:24;;;;;;;4.12;1.07;;;;;;;21.63;40.25;94600.86;1637932;85;21034;-58
2022/07/12 11:16:54;;;;;;;0.60;0.60;;;;;;;21.86;41.18;94603.58;1648994;84;21069;-57
2022/07/12 11:19:24;;;;;;;5.92;0.90;;;;;;;22.14;39.78;94599.21;1644151;85;21115;-58
2022/07/12 11:21:55;;;;;;;1.25;0.70;;;;;;;21.89;39.97;94602.52;1656959;84;21023;-61
2022/07/12 11:24:24;;;;;;;2.53;0.70;;;;;;;21.69;40.64;94611.37;1656805;84;21219;-61
2022/07/12 11:26:56;;;;;;;1.00;0.70;;;;;;;21.37;40.56;94610.31;1638938;85;21044;-58
2022/07/12 11:29:21;;;;;;;3.10;1.10;;;;;;;21.04;42.08;94611.31;1645094;85;21077;-58
2022/07/12 11:31:48;;;;;;;4.17;1.98;;;;;;;20.84;42.02;94615.88;1640950;85;21097;-57
2022/07/12 11:34:26;;;;;;;69.15;42.73;;;;;;;20.58;42.65;94617.50;1666919;85;21118;-57
2022/07/12 11:36:57;;;;;;;3.10;2.37;;;;;;;20.33;42.54;94619.99;1648613;85;21051;-61
2022/07/12 11:39:40;;;;;;;1.85;0.88;;;;;;;20.04;42.56;94635.95;1646292;84;21049;-58
2022/07/12 11:42:14;;;;;;;1.47;1.20;;;;;;;19.68;43.08;94625.82;1664549;84;21054;-57
2022/07/12 11:44:44;;;;;;;1.50;1.25;;;;;;;19.47;44.54;94618.20;1651241;85;21074;-57
2022/07/12 11:47:15;;;;;;;2.22;1.20;;;;;;;19.63;45.70;94621.02;1669041;84;21030;-57
2022/07/12 11:49:56;;;;;;;1.20;0.70;;;;;;;20.13;46.90;94616.89;1664438;84;21243;-59
2022/07/12 11:52:24;;;;;;;1.50;0.80;;;;;;;20.43;44.55;94617.83;1662404;84;21127;-57
2022/07/12 11:54:53;;;;;;;0.88;0.80;;;;;;;20.81;42.78;94616.89;1662394;85;21205;-58
2022/07/12 11:57:25;;;;;;;0.70;0.70;;;;;;;21.20;41.75;94622.27;1665065;85;21034;-58
2022/07/12 11:59:53;;;;;;;3.40;0.80;;;;;;;21.57;40.83;94615.50;1674990;85;21090;-58